createdAt,value
2023-04-03T00:00:27.813Z,-0.30
2023-04-03T00:01:29.767Z,-0.30
2023-04-03T00:02:34.852Z,-0.30
2023-04-03T00:03:37.600Z,-0.40
2023-04-03T00:04:39.569Z,-0.30
2023-04-03T00:05:41.587Z,-0.40
2023-04-03T00:06:43.480Z,-0.40
2023-04-03T00:07:45.423Z,-0.40
2023-04-03T00:08:47.361Z,-0.40
2023-04-03T00:09:49.260Z,-0.40
2023-04-03T00:10:51.260Z,-0.40
2023-04-03T00:11:53.145Z,-0.40
2023-04-03T00:12:55.547Z,-0.40
2023-04-03T00:13:57.442Z,-0.40
2023-04-03T00:15:00.733Z,-0.40
2023-04-03T00:16:04.308Z,-0.40
2023-04-03T00:17:06.328Z,-0.40
2023-04-03T00:18:08.309Z,-0.40
2023-04-03T00:19:12.736Z,-0.50
2023-04-03T00:20:14.628Z,-0.40
2023-04-03T00:21:16.740Z,-0.40
2023-04-03T00:22:18.633Z,-0.40
2023-04-03T00:23:20.537Z,-0.40
2023-04-03T00:24:22.387Z,-0.40
2023-04-03T00:25:24.440Z,-0.40
2023-04-03T00:26:26.865Z,-0.40
2023-04-03T00:27:28.736Z,-0.40
2023-04-03T00:28:30.742Z,-0.50
2023-04-03T00:29:32.655Z,-0.50
2023-04-03T00:30:36.567Z,-0.50
2023-04-03T00:31:38.940Z,-0.50
2023-04-03T00:32:41.092Z,-0.50
2023-04-03T00:33:43.161Z,-0.50
2023-04-03T00:34:45.048Z,-0.50
2023-04-03T00:35:46.950Z,-0.50
2023-04-03T00:36:49.006Z,-0.60
2023-04-03T00:37:51.959Z,-0.60
2023-04-03T00:38:53.895Z,-0.60
2023-04-03T00:39:56.302Z,-0.60
2023-04-03T00:40:58.372Z,-0.60
2023-04-03T00:42:00.321Z,-0.60
2023-04-03T00:43:02.221Z,-0.60
2023-04-03T00:44:18.887Z,-0.60
2023-04-03T00:45:38.432Z,-0.60
2023-04-03T00:46:40.567Z,-0.60
2023-04-03T00:47:44.048Z,-0.60
2023-04-03T00:48:47.057Z,-0.60
2023-04-03T00:49:50.399Z,-0.60
2023-04-03T00:50:53.106Z,-0.60
2023-04-03T00:51:55.552Z,-0.60
2023-04-03T00:52:57.615Z,-0.60
2023-04-03T00:54:00.171Z,-0.60
2023-04-03T00:55:03.270Z,-0.60
2023-04-03T00:56:06.911Z,-0.60
2023-04-03T00:57:09.674Z,-0.70
2023-04-03T00:58:12.844Z,-0.70
2023-04-03T00:59:16.157Z,-0.70
2023-04-03T01:00:21.004Z,-0.60
2023-04-03T01:01:26.365Z,-0.70
2023-04-03T01:02:28.627Z,-0.60
2023-04-03T01:03:32.530Z,-0.60
2023-04-03T01:04:37.242Z,-0.70
2023-04-03T01:05:39.550Z,-0.70
2023-04-03T01:06:41.558Z,-0.70
2023-04-03T01:07:43.556Z,-0.70
2023-04-03T01:08:47.921Z,-0.70
2023-04-03T01:09:51.554Z,-0.70
2023-04-03T01:10:53.662Z,-0.70
2023-04-03T01:11:55.848Z,-0.70
2023-04-03T01:12:58.076Z,-0.70
2023-04-03T01:14:00.090Z,-0.70
2023-04-03T01:15:02.988Z,-0.70
2023-04-03T01:16:06.388Z,-0.80
2023-04-03T01:17:23.419Z,-0.80
2023-04-03T01:18:27.113Z,-0.70
2023-04-03T01:19:29.198Z,-0.80
2023-04-03T01:20:52.105Z,-0.80
2023-04-03T01:21:58.782Z,-0.70
2023-04-03T01:23:06.858Z,-0.70
2023-04-03T01:24:22.985Z,-0.80
2023-04-03T01:25:25.419Z,-0.80
2023-04-03T01:26:28.494Z,-0.80
2023-04-03T01:27:30.522Z,-0.80
2023-04-03T01:28:33.624Z,-0.80
2023-04-03T01:29:35.678Z,-0.70
2023-04-03T01:30:39.861Z,-0.70
2023-04-03T01:32:53.522Z,-0.80
2023-04-03T01:33:55.938Z,-0.80
2023-04-03T01:34:57.849Z,-0.80
2023-04-03T01:35:59.734Z,-0.80
2023-04-03T01:37:01.728Z,-0.80
2023-04-03T01:38:03.589Z,-0.80
2023-04-03T01:39:05.476Z,-0.80
2023-04-03T01:40:08.120Z,-0.80
2023-04-03T01:41:10.388Z,-0.80
2023-04-03T01:42:12.549Z,-0.80
2023-04-03T01:43:14.640Z,-0.80
2023-04-03T01:44:16.681Z,-0.80
2023-04-03T01:45:18.592Z,-0.80
2023-04-03T01:46:21.184Z,-0.80
2023-04-03T01:47:23.185Z,-0.80
2023-04-03T01:48:26.615Z,-0.80
2023-04-03T01:49:28.571Z,-0.80
2023-04-03T01:50:30.526Z,-0.80
2023-04-03T01:51:32.558Z,-0.80
2023-04-03T01:52:34.455Z,-0.80
2023-04-03T01:53:36.375Z,-0.80
2023-04-03T01:54:38.282Z,-0.80
2023-04-03T01:55:40.170Z,-0.80
2023-04-03T01:56:42.215Z,-0.80
2023-04-03T01:57:44.123Z,-0.80
2023-04-03T01:58:47.070Z,-0.80
2023-04-03T01:59:48.981Z,-0.80
2023-04-03T02:00:51.793Z,-0.80
2023-04-03T02:01:53.689Z,-0.80
2023-04-03T02:02:55.630Z,-0.80
2023-04-03T02:03:59.081Z,-0.80
2023-04-03T02:05:01.203Z,-0.80
2023-04-03T02:06:03.261Z,-0.80
2023-04-03T02:07:05.569Z,-0.80
2023-04-03T02:08:07.620Z,-0.80
2023-04-03T02:09:09.596Z,-0.80
2023-04-03T02:10:11.762Z,-0.80
2023-04-03T02:11:16.239Z,-0.80
2023-04-03T02:12:18.280Z,-0.80
2023-04-03T02:13:20.360Z,-0.80
2023-04-03T02:14:24.619Z,-0.80
2023-04-03T02:15:26.973Z,-0.80
2023-04-03T02:16:29.874Z,-0.80
2023-04-03T02:17:31.917Z,-0.80
2023-04-03T02:18:33.872Z,-0.80
2023-04-03T02:19:37.241Z,-0.80
2023-04-03T02:20:39.538Z,-0.80
2023-04-03T02:21:41.980Z,-0.80
2023-04-03T02:22:44.087Z,-0.80
2023-04-03T02:23:46.071Z,-0.90
2023-04-03T02:24:47.958Z,-0.90
2023-04-03T02:25:50.244Z,-0.90
2023-04-03T02:26:52.150Z,-0.90
2023-04-03T02:27:54.312Z,-0.90
2023-04-03T02:28:56.200Z,-0.90
2023-04-03T02:29:58.221Z,-0.90
2023-04-03T02:31:00.161Z,-0.90
2023-04-03T02:32:02.077Z,-0.90
2023-04-03T02:33:04.118Z,-0.90
2023-04-03T02:34:06.601Z,-0.90
2023-04-03T02:35:10.544Z,-0.90
2023-04-03T02:36:12.496Z,-0.90
2023-04-03T02:37:14.391Z,-0.90
2023-04-03T02:38:16.261Z,-0.90
2023-04-03T02:39:18.358Z,-0.90
2023-04-03T02:40:20.450Z,-0.90
2023-04-03T02:41:22.606Z,-0.90
2023-04-03T02:42:24.623Z,-0.90
2023-04-03T02:43:26.555Z,-0.90
2023-04-03T02:44:28.471Z,-0.90
2023-04-03T02:45:32.036Z,-0.90
2023-04-03T02:46:34.174Z,-0.90
2023-04-03T02:47:36.219Z,-0.90
2023-04-03T02:48:38.522Z,-0.90
2023-04-03T02:49:40.504Z,-1.00
2023-04-03T02:50:43.767Z,-1.00
2023-04-03T02:51:45.686Z,-1.00
2023-04-03T02:52:47.566Z,-0.90
2023-04-03T02:53:49.517Z,-1.00
2023-04-03T02:54:51.561Z,-0.90
2023-04-03T02:55:53.525Z,-1.00
2023-04-03T02:56:55.562Z,-1.00
2023-04-03T02:57:57.430Z,-1.00
2023-04-03T02:58:59.329Z,-1.00
2023-04-03T03:00:01.244Z,-1.00
2023-04-03T03:01:03.500Z,-1.00
2023-04-03T03:02:05.692Z,-1.00
2023-04-03T03:03:07.800Z,-1.00
2023-04-03T03:04:09.815Z,-1.00
2023-04-03T03:05:11.721Z,-1.00
2023-04-03T03:06:17.374Z,-1.00
2023-04-03T03:07:19.965Z,-1.00
2023-04-03T03:08:22.384Z,-1.00
2023-04-03T03:09:24.794Z,-1.00
2023-04-03T03:10:26.918Z,-1.00
2023-04-03T03:11:28.813Z,-1.10
2023-04-03T03:12:32.643Z,-1.10
2023-04-03T03:13:35.644Z,-1.10
2023-04-03T03:14:37.516Z,-1.10
2023-04-03T03:15:39.385Z,-1.10
2023-04-03T03:16:41.358Z,-1.10
2023-04-03T03:17:43.292Z,-1.10
2023-04-03T03:18:45.537Z,-1.10
2023-04-03T03:19:47.412Z,-1.10
2023-04-03T03:20:51.961Z,-1.10
2023-04-03T03:21:55.264Z,-1.10
2023-04-03T03:22:57.128Z,-1.10
2023-04-03T03:23:58.989Z,-1.10
2023-04-03T03:25:01.821Z,-1.10
2023-04-03T03:26:04.764Z,-1.10
2023-04-03T03:27:06.771Z,-1.10
2023-04-03T03:28:08.853Z,-1.10
2023-04-03T03:29:10.829Z,-1.10
2023-04-03T03:30:12.979Z,-1.10
2023-04-03T03:31:16.289Z,-1.10
2023-04-03T03:32:18.280Z,-1.10
2023-04-03T03:33:20.328Z,-1.10
2023-04-03T03:34:22.266Z,-1.10
2023-04-03T03:35:24.352Z,-1.10
2023-04-03T03:36:26.503Z,-1.10
2023-04-03T03:37:29.817Z,-1.10
2023-04-03T03:38:31.757Z,-1.10
2023-04-03T03:39:33.732Z,-1.10
2023-04-03T03:40:35.763Z,-1.10
2023-04-03T03:41:37.794Z,-1.10
2023-04-03T03:42:39.676Z,-1.10
2023-04-03T03:43:42.057Z,-1.20
2023-04-03T03:44:43.899Z,-1.20
2023-04-03T03:45:47.288Z,-1.20
2023-04-03T03:46:49.246Z,-1.20
2023-04-03T03:47:51.225Z,-1.20
2023-04-03T03:48:53.179Z,-1.10
2023-04-03T03:49:55.249Z,-1.10
2023-04-03T03:50:57.224Z,-1.10
2023-04-03T03:51:59.342Z,-1.10
2023-04-03T03:53:02.646Z,-1.10
2023-04-03T03:54:04.632Z,-1.10
2023-04-03T03:55:06.977Z,-1.10
2023-04-03T03:56:08.835Z,-1.10
2023-04-03T03:57:10.758Z,-1.20
2023-04-03T03:58:12.699Z,-1.20
2023-04-03T03:59:14.692Z,-1.10
2023-04-03T04:00:17.150Z,-1.10
2023-04-03T04:01:19.094Z,-1.10
2023-04-03T04:02:20.970Z,-1.10
2023-04-03T04:03:22.998Z,-1.10
2023-04-03T04:04:25.008Z,-1.10
2023-04-03T04:05:26.879Z,-1.00
2023-04-03T04:06:29.300Z,-1.10
2023-04-03T04:07:34.688Z,-1.10
2023-04-03T04:08:38.248Z,-1.00
2023-04-03T04:09:40.242Z,-1.00
2023-04-03T04:10:42.164Z,-1.00
2023-04-03T04:11:44.169Z,-1.00
2023-04-03T04:12:46.095Z,-1.10
2023-04-03T04:13:48.042Z,-1.00
2023-04-03T04:14:50.059Z,-1.10
2023-04-03T04:15:52.062Z,-1.00
2023-04-03T04:16:54.212Z,-1.00
2023-04-03T04:17:56.436Z,-1.00
2023-04-03T04:18:58.452Z,-1.00
2023-04-03T04:20:00.483Z,-1.00
2023-04-03T04:21:02.434Z,-1.00
2023-04-03T04:22:04.478Z,-1.00
2023-04-03T04:23:06.475Z,-1.00
2023-04-03T04:24:10.129Z,-1.00
2023-04-03T04:25:12.489Z,-1.00
2023-04-03T04:26:14.469Z,-0.90
2023-04-03T04:27:20.396Z,-1.00
2023-04-03T04:28:22.706Z,-1.00
2023-04-03T04:29:24.792Z,-1.00
2023-04-03T04:30:27.468Z,-1.00
2023-04-03T04:31:29.676Z,-0.90
2023-04-03T04:32:34.457Z,-0.90
2023-04-03T04:33:39.703Z,-0.90
2023-04-03T04:34:41.664Z,-0.90
2023-04-03T04:35:44.657Z,-0.90
2023-04-03T04:36:46.731Z,-0.80
2023-04-03T04:37:48.875Z,-0.80
2023-04-03T04:38:53.842Z,-0.80
2023-04-03T04:39:57.160Z,-0.80
2023-04-03T04:40:59.327Z,-0.80
2023-04-03T04:42:01.242Z,-0.80
2023-04-03T04:43:03.390Z,-0.80
2023-04-03T04:44:05.482Z,-0.80
2023-04-03T04:45:08.491Z,-0.80
2023-04-03T04:46:12.709Z,-0.80
2023-04-03T04:47:14.765Z,-0.70
2023-04-03T04:48:16.700Z,-0.70
2023-04-03T04:49:18.654Z,-0.70
2023-04-03T04:50:20.866Z,-0.70
2023-04-03T04:51:22.728Z,-0.70
2023-04-03T04:52:24.645Z,-0.70
2023-04-03T04:53:26.619Z,-0.60
2023-04-03T04:54:28.516Z,-0.60
2023-04-03T04:55:32.210Z,-0.60
2023-04-03T04:56:34.084Z,-0.60
2023-04-03T04:57:40.042Z,-0.60
2023-04-03T04:58:42.023Z,-0.60
2023-04-03T04:59:43.964Z,-0.60
2023-04-03T05:00:45.887Z,-0.50
2023-04-03T05:01:47.839Z,-0.50
2023-04-03T05:02:49.921Z,-0.50
2023-04-03T05:03:52.147Z,-0.50
2023-04-03T05:04:54.161Z,-0.50
2023-04-03T05:05:59.520Z,-0.50
2023-04-03T05:07:01.526Z,-0.40
2023-04-03T05:08:04.539Z,-0.40
2023-04-03T05:09:06.787Z,-0.40
2023-04-03T05:10:09.712Z,-0.40
2023-04-03T05:11:12.958Z,-0.40
2023-04-03T05:12:14.848Z,-0.40
2023-04-03T05:13:16.737Z,-0.30
2023-04-03T05:14:18.719Z,-0.30
2023-04-03T05:15:21.041Z,-0.30
2023-04-03T05:16:22.938Z,-0.30
2023-04-03T05:17:24.903Z,-0.30
2023-04-03T05:18:26.871Z,-0.30
2023-04-03T05:19:28.766Z,-0.20
2023-04-03T05:20:30.672Z,-0.20
2023-04-03T05:21:33.570Z,-0.20
2023-04-03T05:22:35.630Z,-0.20
2023-04-03T05:23:37.501Z,-0.20
2023-04-03T05:24:39.565Z,-0.10
2023-04-03T05:25:41.507Z,-0.10
2023-04-03T05:26:45.309Z,-0.10
2023-04-03T05:27:47.186Z,-0.10
2023-04-03T05:28:49.033Z,-0.10
2023-04-03T05:29:50.994Z,-0.10
2023-04-03T05:30:56.439Z,0.00
2023-04-03T05:31:58.368Z,0.00
2023-04-03T05:33:00.779Z,0.00
2023-04-03T05:34:02.744Z,0.00
2023-04-03T05:35:05.399Z,0.00
2023-04-03T05:36:08.087Z,0.00
2023-04-03T05:37:10.603Z,0.00
2023-04-03T05:38:12.731Z,0.00
2023-04-03T05:39:14.774Z,0.10
2023-04-03T05:40:18.587Z,0.10
2023-04-03T05:41:22.256Z,0.10
2023-04-03T05:42:25.700Z,0.10
2023-04-03T05:43:27.600Z,0.10
2023-04-03T05:44:29.483Z,0.20
2023-04-03T05:45:31.717Z,0.20
2023-04-03T05:46:34.315Z,0.20
2023-04-03T05:47:36.305Z,0.20
2023-04-03T05:48:38.285Z,0.20
2023-04-03T05:49:43.104Z,0.20
2023-04-03T05:50:44.996Z,0.30
2023-04-03T05:51:46.889Z,0.30
2023-04-03T05:52:50.490Z,0.40
2023-04-03T05:53:54.666Z,0.40
2023-04-03T05:54:56.640Z,0.40
2023-04-03T05:55:58.567Z,0.40
2023-04-03T05:57:00.560Z,0.40
2023-04-03T05:58:04.138Z,0.40
2023-04-03T05:59:06.197Z,0.50
2023-04-03T06:00:10.493Z,0.50
2023-04-03T06:01:12.790Z,0.60
2023-04-03T06:02:16.247Z,0.50
2023-04-03T06:03:18.298Z,0.50
2023-04-03T06:04:22.201Z,0.60
2023-04-03T06:05:24.829Z,0.50
2023-04-03T06:06:26.839Z,0.60
2023-04-03T06:07:29.493Z,0.60
2023-04-03T06:08:31.381Z,0.60
2023-04-03T06:09:33.253Z,0.70
2023-04-03T06:10:35.205Z,0.70
2023-04-03T06:11:37.145Z,0.70
2023-04-03T06:12:39.108Z,0.60
2023-04-03T06:13:42.480Z,0.70
2023-04-03T06:14:44.395Z,0.70
2023-04-03T06:15:46.428Z,0.70
2023-04-03T06:16:48.439Z,0.70
2023-04-03T06:17:50.430Z,0.60
2023-04-03T06:18:52.344Z,0.70
2023-04-03T06:19:54.291Z,0.70
2023-04-03T06:20:56.363Z,0.70
2023-04-03T06:21:58.350Z,0.70
2023-04-03T06:23:08.198Z,0.70
2023-04-03T06:24:10.731Z,0.70
2023-04-03T06:25:13.222Z,0.80
2023-04-03T06:26:15.100Z,0.80
2023-04-03T06:27:17.880Z,0.80
2023-04-03T06:28:20.404Z,0.90
2023-04-03T06:29:23.799Z,0.90
2023-04-03T06:30:25.789Z,1.00
2023-04-03T06:31:27.728Z,1.00
2023-04-03T06:32:29.707Z,1.10
2023-04-03T06:33:31.765Z,1.00
2023-04-03T06:34:33.857Z,1.10
2023-04-03T06:35:36.183Z,1.10
2023-04-03T06:36:38.455Z,1.20
2023-04-03T06:37:40.594Z,1.30
2023-04-03T06:38:42.494Z,1.30
2023-04-03T06:39:44.441Z,1.30
2023-04-03T06:40:46.799Z,1.20
2023-04-03T06:41:48.694Z,1.20
2023-04-03T06:42:50.696Z,1.10
2023-04-03T06:43:52.671Z,1.20
2023-04-03T06:44:56.266Z,1.10
2023-04-03T06:45:58.205Z,1.20
2023-04-03T06:47:00.170Z,1.20
2023-04-03T06:48:02.453Z,1.20
2023-04-03T06:49:05.041Z,1.20
2023-04-03T06:50:07.930Z,1.20
2023-04-03T06:51:12.972Z,1.20
2023-04-03T06:52:14.861Z,1.20
2023-04-03T06:53:17.200Z,1.20
2023-04-03T06:54:19.348Z,1.20
2023-04-03T06:55:21.593Z,1.20
2023-04-03T06:56:23.796Z,1.20
2023-04-03T06:57:26.138Z,1.20
2023-04-03T06:58:30.396Z,1.10
2023-04-03T06:59:32.302Z,1.20
2023-04-03T07:00:35.534Z,1.20
2023-04-03T07:01:39.862Z,1.10
2023-04-03T07:02:41.934Z,1.10
2023-04-03T07:03:43.887Z,1.10
2023-04-03T07:04:45.793Z,1.10
2023-04-03T07:05:47.709Z,1.10
2023-04-03T07:06:49.694Z,1.20
2023-04-03T07:07:52.389Z,1.20
2023-04-03T07:08:54.299Z,1.20
2023-04-03T07:09:56.200Z,1.20
2023-04-03T07:10:58.101Z,1.20
2023-04-03T07:11:59.948Z,1.30
2023-04-03T07:13:02.769Z,1.30
2023-04-03T07:14:04.719Z,1.40
2023-04-03T07:15:07.281Z,1.40
2023-04-03T07:16:10.738Z,1.40
2023-04-03T07:17:13.022Z,1.40
2023-04-03T07:18:15.017Z,1.40
2023-04-03T07:19:19.170Z,1.50
2023-04-03T07:20:21.058Z,1.50
2023-04-03T07:21:22.928Z,1.40
2023-04-03T07:22:24.848Z,1.40
2023-04-03T07:23:26.746Z,1.40
2023-04-03T07:24:28.748Z,1.30
2023-04-03T07:25:31.027Z,1.30
2023-04-03T07:26:33.115Z,1.30
2023-04-03T07:27:35.271Z,1.30
2023-04-03T07:28:37.802Z,1.30
2023-04-03T07:29:40.192Z,1.30
2023-04-03T07:30:46.310Z,1.30
2023-04-03T07:31:50.422Z,1.30
2023-04-03T07:32:52.496Z,1.30
2023-04-03T07:33:54.480Z,1.30
2023-04-03T07:34:56.446Z,1.30
2023-04-03T07:35:58.608Z,1.30
2023-04-03T07:37:01.160Z,1.30
2023-04-03T07:38:03.359Z,1.40
2023-04-03T07:39:05.256Z,1.40
2023-04-03T07:40:07.804Z,1.40
2023-04-03T07:41:12.215Z,1.40
2023-04-03T07:42:14.228Z,1.40
2023-04-03T07:43:18.964Z,1.50
2023-04-03T07:44:20.842Z,1.50
2023-04-03T07:45:23.895Z,1.60
2023-04-03T07:46:26.089Z,1.60
2023-04-03T07:47:29.497Z,1.50
2023-04-03T07:48:31.421Z,1.50
2023-04-03T07:49:34.020Z,1.50
2023-04-03T07:50:37.228Z,1.40
2023-04-03T07:51:39.365Z,1.40
2023-04-03T07:52:41.444Z,1.50
2023-04-03T07:53:44.095Z,1.50
2023-04-03T07:54:45.993Z,1.50
2023-04-03T07:55:48.380Z,1.50
2023-04-03T07:56:50.399Z,1.50
2023-04-03T07:57:52.400Z,1.60
2023-04-03T07:58:54.757Z,1.60
2023-04-03T07:59:56.714Z,1.60
2023-04-03T08:00:58.875Z,1.60
2023-04-03T08:02:00.823Z,1.60
2023-04-03T08:03:04.393Z,1.50
2023-04-03T08:04:07.908Z,1.50
2023-04-03T08:05:10.052Z,1.40
2023-04-03T08:06:15.929Z,1.40
2023-04-03T08:07:18.516Z,1.40
2023-04-03T08:08:22.322Z,1.40
2023-04-03T08:09:24.213Z,1.30
2023-04-03T08:10:26.130Z,1.30
2023-04-03T08:11:28.264Z,1.30
2023-04-03T08:12:30.895Z,1.30
2023-04-03T08:13:33.057Z,1.30
2023-04-03T08:14:37.730Z,1.40
2023-04-03T08:15:39.878Z,1.40
2023-04-03T08:16:42.313Z,1.40
2023-04-03T08:17:44.226Z,1.50
2023-04-03T08:18:47.910Z,1.60
2023-04-03T08:19:52.202Z,1.70
2023-04-03T08:20:54.081Z,1.80
2023-04-03T08:21:56.428Z,1.80
2023-04-03T08:22:58.552Z,1.80
2023-04-03T08:24:00.416Z,1.70
2023-04-03T08:25:02.836Z,1.70
2023-04-03T08:26:08.120Z,1.70
2023-04-03T08:27:10.107Z,1.60
2023-04-03T08:28:12.575Z,1.60
2023-04-03T08:29:14.760Z,1.60
2023-04-03T08:30:17.066Z,1.60
2023-04-03T08:31:21.032Z,1.70
2023-04-03T08:32:23.356Z,1.80
2023-04-03T08:33:25.534Z,1.80
2023-04-03T08:34:28.878Z,1.90
2023-04-03T08:35:31.094Z,1.90
2023-04-03T08:36:33.021Z,1.90
2023-04-03T08:37:36.164Z,1.80
2023-04-03T08:38:38.312Z,1.90
2023-04-03T08:39:40.184Z,1.90
2023-04-03T08:40:42.520Z,1.90
2023-04-03T08:41:47.397Z,1.90
2023-04-03T08:42:54.985Z,1.80
2023-04-03T08:44:07.778Z,1.80
2023-04-03T08:45:12.176Z,1.90
2023-04-03T08:46:16.515Z,1.90
2023-04-03T08:47:21.609Z,1.90
2023-04-03T08:48:25.115Z,2.00
2023-04-03T08:49:30.698Z,2.00
2023-04-03T08:50:36.088Z,2.00
2023-04-03T08:51:39.552Z,2.10
2023-04-03T08:52:43.259Z,2.10
2023-04-03T08:53:47.673Z,2.10
2023-04-03T08:54:51.759Z,2.00
2023-04-03T08:55:54.481Z,2.00
2023-04-03T08:56:56.801Z,1.90
2023-04-03T08:58:01.046Z,1.90
2023-04-03T08:59:06.413Z,2.00
2023-04-03T09:00:13.820Z,2.00
2023-04-03T09:01:18.814Z,2.10
2023-04-03T09:02:33.665Z,2.20
2023-04-03T09:03:39.043Z,2.30
2023-04-03T09:04:42.666Z,2.40
2023-04-03T09:05:48.382Z,2.50
2023-04-03T09:06:52.850Z,2.40
2023-04-03T09:07:59.281Z,2.40
2023-04-03T09:09:09.129Z,2.40
2023-04-03T09:10:13.752Z,2.20
2023-04-03T09:11:19.882Z,2.20
2023-04-03T09:12:25.016Z,2.20
2023-04-03T09:13:30.814Z,2.20
2023-04-03T09:14:36.930Z,2.20
2023-04-03T09:15:39.758Z,2.20
2023-04-03T09:16:47.638Z,2.20
2023-04-03T09:17:54.602Z,2.20
2023-04-03T09:19:02.962Z,2.10
2023-04-03T09:20:12.182Z,2.10
2023-04-03T09:21:17.093Z,2.10
2023-04-03T09:22:21.362Z,2.20
2023-04-03T09:23:25.803Z,2.20
2023-04-03T09:24:27.718Z,2.20
2023-04-03T09:25:34.114Z,2.30
2023-04-03T09:26:38.182Z,2.30
2023-04-03T09:27:40.501Z,2.30
2023-04-03T09:28:50.480Z,2.30
2023-04-03T09:29:54.782Z,2.30
2023-04-03T09:30:56.656Z,2.30
2023-04-03T09:32:00.500Z,2.30
2023-04-03T09:33:02.973Z,2.40
2023-04-03T09:34:07.804Z,2.50
2023-04-03T09:35:21.743Z,2.60
2023-04-03T09:36:41.134Z,2.60
2023-04-03T09:37:44.549Z,2.60
2023-04-03T09:38:46.677Z,2.60
2023-04-03T09:39:50.942Z,2.60
2023-04-03T09:41:04.680Z,2.50
2023-04-03T09:42:14.172Z,2.60
2023-04-03T09:43:24.101Z,2.60
2023-04-03T09:44:26.762Z,2.70
2023-04-03T09:45:30.366Z,2.70
2023-04-03T09:46:33.298Z,2.70
2023-04-03T09:47:36.231Z,2.60
2023-04-03T09:48:38.150Z,2.50
2023-04-03T09:49:40.004Z,2.40
2023-04-03T09:50:56.534Z,2.30
2023-04-03T09:51:58.567Z,2.30
2023-04-03T09:53:04.890Z,2.40
2023-04-03T09:54:27.192Z,2.40
2023-04-03T09:55:30.692Z,2.40
2023-04-03T09:56:32.815Z,2.40
2023-04-03T09:57:34.872Z,2.30
2023-04-03T09:58:49.073Z,2.30
2023-04-03T09:59:59.390Z,2.30
2023-04-03T10:01:02.361Z,2.30
2023-04-03T10:02:05.019Z,2.50
2023-04-03T10:03:23.422Z,2.50
2023-04-03T10:04:25.654Z,2.60
2023-04-03T10:05:29.491Z,2.70
2023-04-03T10:06:38.836Z,2.60
2023-04-03T10:07:44.439Z,2.60
2023-04-03T10:08:59.404Z,2.60
2023-04-03T10:10:02.671Z,2.50
2023-04-03T10:11:09.909Z,2.50
2023-04-03T10:12:13.101Z,2.50
2023-04-03T10:13:20.928Z,2.50
2023-04-03T10:14:23.417Z,2.60
2023-04-03T10:15:28.137Z,2.60
2023-04-03T10:16:40.306Z,2.70
2023-04-03T10:17:49.092Z,2.70
2023-04-03T10:18:56.276Z,2.70
2023-04-03T10:19:59.583Z,2.80
2023-04-03T10:21:06.099Z,2.80
2023-04-03T10:22:15.507Z,2.90
2023-04-03T10:23:21.104Z,2.90
2023-04-03T10:24:26.280Z,3.00
2023-04-03T10:25:32.959Z,3.00
2023-04-03T10:26:38.609Z,3.10
2023-04-03T10:27:45.202Z,3.20
2023-04-03T10:28:50.912Z,3.20
2023-04-03T10:29:56.727Z,3.20
2023-04-03T10:31:03.587Z,3.10
2023-04-03T10:32:13.872Z,3.10
2023-04-03T10:33:37.261Z,3.10
2023-04-03T10:34:42.371Z,3.00
2023-04-03T10:35:57.077Z,3.10
2023-04-03T10:37:08.387Z,3.10
2023-04-03T10:38:16.374Z,3.10
2023-04-03T10:39:29.436Z,3.10
2023-04-03T10:40:40.181Z,3.10
2023-04-03T10:42:00.911Z,3.10
2023-04-03T10:43:22.464Z,3.20
2023-04-03T10:44:37.393Z,3.30
2023-04-03T10:45:54.570Z,3.40
2023-04-03T10:47:03.375Z,3.60
2023-04-03T10:48:12.390Z,3.60
2023-04-03T10:49:26.482Z,3.80
2023-04-03T10:50:39.306Z,3.80
2023-04-03T10:51:45.162Z,4.00
2023-04-03T10:52:52.058Z,4.10
2023-04-03T10:54:01.794Z,4.20
2023-04-03T10:55:25.180Z,4.20
2023-04-03T10:56:33.223Z,4.30
2023-04-03T10:57:35.786Z,4.40
2023-04-03T10:58:41.668Z,4.90
2023-04-03T10:59:48.583Z,5.60
2023-04-03T11:00:54.567Z,6.30
2023-04-03T11:02:00.797Z,6.60
2023-04-03T11:03:10.216Z,6.80
2023-04-03T11:04:14.030Z,7.00
2023-04-03T11:05:26.936Z,7.40
2023-04-03T11:06:37.804Z,7.50
2023-04-03T11:07:43.876Z,7.70
2023-04-03T11:08:49.965Z,8.00
2023-04-03T11:10:00.262Z,8.50
2023-04-03T11:11:07.161Z,9.10
2023-04-03T11:12:16.248Z,10.00
2023-04-03T11:13:24.061Z,10.80
2023-04-03T11:14:28.965Z,11.20
2023-04-03T11:15:34.323Z,11.70
2023-04-03T11:16:50.933Z,11.80
2023-04-03T11:18:01.330Z,11.30
2023-04-03T11:19:11.581Z,10.80
2023-04-03T11:20:18.933Z,10.60
2023-04-03T11:21:25.598Z,10.40
2023-04-03T11:22:31.607Z,10.30
2023-04-03T11:23:49.061Z,10.30
2023-04-03T11:25:03.465Z,10.60
2023-04-03T11:26:12.041Z,10.80
2023-04-03T11:27:23.815Z,11.00
2023-04-03T11:28:26.187Z,11.00
2023-04-03T11:29:35.776Z,10.30
2023-04-03T11:30:44.542Z,10.00
2023-04-03T11:32:06.740Z,9.80
2023-04-03T11:33:35.098Z,9.70
2023-04-03T11:34:42.694Z,9.30
2023-04-03T11:35:47.171Z,9.00
2023-04-03T11:36:52.905Z,9.10
2023-04-03T11:37:56.442Z,9.00
2023-04-03T11:39:01.675Z,9.20
2023-04-03T11:40:10.228Z,9.40
2023-04-03T11:41:13.943Z,9.40
2023-04-03T11:42:19.043Z,9.40
2023-04-03T11:43:27.116Z,9.40
2023-04-03T11:44:39.848Z,9.20
2023-04-03T11:45:54.032Z,9.00
2023-04-03T11:46:58.221Z,8.80
2023-04-03T11:48:12.976Z,8.00
2023-04-03T11:49:51.723Z,7.30
2023-04-03T11:50:53.966Z,7.30
2023-04-03T11:51:56.229Z,7.10
2023-04-03T11:53:03.393Z,6.80
2023-04-03T11:54:44.299Z,6.60
2023-04-03T11:55:56.861Z,6.50
2023-04-03T11:56:59.010Z,6.50
2023-04-03T11:58:12.925Z,6.70
2023-04-03T11:59:25.665Z,7.20
2023-04-03T12:00:53.832Z,7.20
2023-04-03T12:01:57.492Z,7.30
2023-04-03T12:03:00.580Z,7.80
2023-04-03T12:04:15.042Z,8.30
2023-04-03T12:05:29.177Z,9.20
2023-04-03T12:06:55.924Z,9.90
2023-04-03T12:08:17.140Z,10.20
2023-04-03T12:09:33.235Z,10.50
2023-04-03T12:10:36.024Z,10.90
2023-04-03T12:11:39.749Z,11.20
2023-04-03T12:12:42.200Z,11.40
2023-04-03T12:14:05.995Z,11.20
2023-04-03T12:15:42.607Z,10.90
2023-04-03T12:16:48.326Z,10.50
2023-04-03T12:17:50.920Z,9.10
2023-04-03T12:19:04.566Z,8.80
2023-04-03T12:20:40.035Z,8.70
2023-04-03T12:22:16.872Z,8.30
2023-04-03T12:23:31.854Z,8.30
2023-04-03T12:24:34.891Z,9.60
2023-04-03T12:25:50.911Z,9.50
2023-04-03T12:27:05.781Z,8.80
2023-04-03T12:28:11.651Z,7.90
2023-04-03T12:29:19.499Z,7.50
2023-04-03T12:30:27.495Z,7.20
2023-04-03T12:31:43.566Z,7.20
2023-04-03T12:33:16.207Z,6.90
2023-04-03T12:34:40.219Z,6.80
2023-04-03T12:35:50.777Z,6.20
2023-04-03T12:37:03.020Z,5.80
2023-04-03T12:38:50.171Z,5.60
2023-04-03T12:40:03.218Z,5.40
2023-04-03T12:41:24.841Z,5.20
2023-04-03T12:42:52.513Z,5.00
2023-04-03T12:44:42.713Z,4.80
2023-04-03T12:45:49.684Z,4.70
2023-04-03T12:46:53.680Z,4.70
2023-04-03T12:47:57.342Z,4.70
2023-04-03T12:49:00.632Z,4.70
2023-04-03T12:50:05.118Z,4.80
2023-04-03T12:51:08.112Z,4.90
2023-04-03T12:52:22.870Z,4.90
2023-04-03T12:53:27.593Z,4.80
2023-04-03T12:54:36.121Z,4.70
2023-04-03T12:55:38.518Z,4.60
2023-04-03T12:56:40.942Z,4.40
2023-04-03T12:57:44.693Z,4.20
2023-04-03T12:58:46.906Z,4.10
2023-04-03T12:59:50.120Z,3.90
2023-04-03T13:01:04.318Z,3.80
2023-04-03T13:02:18.792Z,3.60
2023-04-03T13:03:25.446Z,3.50
2023-04-03T13:04:29.142Z,3.40
2023-04-03T13:05:36.523Z,3.30
2023-04-03T13:06:41.466Z,3.30
2023-04-03T13:07:44.633Z,3.30
2023-04-03T13:08:51.295Z,3.30
2023-04-03T13:10:02.163Z,3.20
2023-04-03T13:11:09.871Z,3.20
2023-04-03T13:12:14.184Z,3.20
2023-04-03T13:13:17.876Z,3.10
2023-04-03T13:14:22.381Z,3.10
2023-04-03T13:15:26.847Z,3.10
2023-04-03T13:16:29.351Z,3.10
2023-04-03T13:17:33.120Z,3.10
2023-04-03T13:18:37.399Z,3.20
2023-04-03T13:19:40.592Z,3.30
2023-04-03T13:20:42.786Z,3.40
2023-04-03T13:21:46.472Z,3.60
2023-04-03T13:22:53.693Z,3.80
2023-04-03T13:24:14.167Z,3.70
2023-04-03T13:25:20.456Z,3.70
2023-04-03T13:26:25.212Z,3.80
2023-04-03T13:27:27.914Z,3.90
2023-04-03T13:28:32.854Z,3.90
2023-04-03T13:29:37.564Z,4.00
2023-04-03T13:30:41.477Z,4.10
2023-04-03T13:31:43.752Z,4.10
2023-04-03T13:32:46.141Z,4.20
2023-04-03T13:33:57.129Z,4.10
2023-04-03T13:35:08.189Z,4.00
2023-04-03T13:36:20.332Z,3.90
2023-04-03T13:37:23.858Z,3.80
2023-04-03T13:38:27.837Z,3.80
2023-04-03T13:39:31.958Z,3.70
2023-04-03T13:40:45.136Z,3.60
2023-04-03T13:41:52.210Z,3.50
2023-04-03T13:43:02.929Z,3.40
2023-04-03T13:44:31.248Z,3.40
2023-04-03T13:45:34.918Z,3.40
2023-04-03T13:46:37.529Z,3.30
2023-04-03T13:47:42.454Z,3.30
2023-04-03T13:48:46.943Z,3.30
2023-04-03T13:50:02.039Z,3.30
2023-04-03T13:51:06.750Z,3.30
2023-04-03T13:52:29.717Z,3.30
2023-04-03T13:53:35.296Z,3.30
2023-04-03T13:54:39.802Z,3.20
2023-04-03T13:55:58.534Z,3.10
2023-04-03T13:57:02.357Z,3.00
2023-04-03T13:58:23.016Z,3.00
2023-04-03T13:59:31.387Z,2.90
2023-04-03T14:00:38.670Z,2.90
2023-04-03T14:01:46.615Z,2.80
2023-04-03T14:02:49.927Z,2.80
2023-04-03T14:03:57.138Z,2.90
2023-04-03T14:05:02.575Z,3.00
2023-04-03T14:06:08.131Z,3.10
2023-04-03T14:07:11.034Z,3.30
2023-04-03T14:08:13.177Z,3.20
2023-04-03T14:09:16.558Z,3.30
2023-04-03T14:10:18.925Z,3.30
2023-04-03T14:11:24.758Z,3.30
2023-04-03T14:12:32.160Z,3.30
2023-04-03T14:13:34.729Z,3.30